createdAt,value
2022-08-14T00:02:16.981Z,20.92
2022-08-14T00:04:46.877Z,20.25
2022-08-14T00:07:16.114Z,19.88
2022-08-14T00:10:01.793Z,19.10
2022-08-14T00:12:53.263Z,18.13
2022-08-14T00:15:23.624Z,17.17
2022-08-14T00:17:53.492Z,20.48
2022-08-14T00:20:30.587Z,18.73
2022-08-14T00:23:12.309Z,20.33
2022-08-14T00:25:58.578Z,23.10
2022-08-14T00:28:34.902Z,18.42
2022-08-14T00:31:04.580Z,19.25
2022-08-14T00:33:51.838Z,16.92
2022-08-14T00:36:37.268Z,19.40
2022-08-14T00:39:17.846Z,19.05
2022-08-14T00:41:47.418Z,17.45
2022-08-14T00:44:21.560Z,17.80
2022-08-14T00:47:01.268Z,20.40
2022-08-14T00:49:38.322Z,16.45
2022-08-14T00:52:14.103Z,18.38
2022-08-14T00:54:46.639Z,21.33
2022-08-14T00:57:15.755Z,17.55
2022-08-14T00:59:45.626Z,17.48
2022-08-14T01:02:14.732Z,22.27
2022-08-14T01:04:54.301Z,20.10
2022-08-14T01:07:24.885Z,18.67
2022-08-14T01:09:57.342Z,18.60
2022-08-14T01:12:29.786Z,19.85
2022-08-14T01:14:58.991Z,20.80
2022-08-14T01:17:49.818Z,17.42
2022-08-14T01:20:39.654Z,19.35
2022-08-14T01:23:16.640Z,21.25
2022-08-14T01:25:47.238Z,19.90
2022-08-14T01:28:46.229Z,19.65
2022-08-14T01:31:06.389Z,17.60
2022-08-14T01:33:59.080Z,17.42
2022-08-14T01:36:23.885Z,15.32
2022-08-14T01:38:58.285Z,19.67
2022-08-14T01:41:30.179Z,18.13
2022-08-14T01:44:02.214Z,20.35
2022-08-14T01:46:33.493Z,20.08
2022-08-14T01:49:06.380Z,17.45
2022-08-14T01:51:36.415Z,17.33
2022-08-14T01:54:07.471Z,16.95
2022-08-14T01:56:39.914Z,15.98
2022-08-14T01:59:18.308Z,17.30
2022-08-14T02:01:58.144Z,18.52
2022-08-14T02:04:55.681Z,18.25
2022-08-14T02:07:34.134Z,17.13
2022-08-14T02:10:06.442Z,22.23
2022-08-14T02:12:35.095Z,20.98
2022-08-14T02:15:03.521Z,17.50
2022-08-14T02:17:35.166Z,20.15
2022-08-14T02:20:04.354Z,17.70
2022-08-14T02:22:33.370Z,16.23
2022-08-14T02:25:02.497Z,18.23
2022-08-14T02:28:26.099Z,18.58
2022-08-14T02:30:20.754Z,17.73
2022-08-14T02:32:50.903Z,19.13
2022-08-14T02:35:22.058Z,19.00
2022-08-14T02:37:54.940Z,18.95
2022-08-14T02:40:32.284Z,17.48
2022-08-14T02:43:05.210Z,20.35
2022-08-14T02:45:38.522Z,18.92
2022-08-14T02:49:01.588Z,16.98
2022-08-14T02:51:04.012Z,20.00
2022-08-14T02:53:33.293Z,18.73
2022-08-14T02:56:29.462Z,18.63
2022-08-14T02:58:55.749Z,17.73
2022-08-14T03:01:31.466Z,18.85
2022-08-14T03:04:11.963Z,19.30
2022-08-14T03:06:57.142Z,17.05
2022-08-14T03:10:25.142Z,18.02
2022-08-14T03:12:31.204Z,18.48
2022-08-14T03:15:13.991Z,18.58
2022-08-14T03:17:56.831Z,16.23
2022-08-14T03:20:28.345Z,17.27
2022-08-14T03:23:00.121Z,18.92
2022-08-14T03:25:33.403Z,19.80
2022-08-14T03:28:04.128Z,17.33
2022-08-14T03:30:39.657Z,17.77
2022-08-14T03:33:10.883Z,18.92
2022-08-14T03:36:00.198Z,17.83
2022-08-14T03:39:13.884Z,20.30
2022-08-14T03:41:20.384Z,19.52
2022-08-14T03:43:57.052Z,21.55
2022-08-14T03:46:53.086Z,21.65
2022-08-14T03:49:29.190Z,20.75
2022-08-14T03:52:00.882Z,20.08
2022-08-14T03:54:30.291Z,19.45
2022-08-14T03:57:02.486Z,18.92
2022-08-14T03:59:31.590Z,20.58
2022-08-14T04:02:04.535Z,20.88
2022-08-14T04:04:38.492Z,22.30
2022-08-14T04:07:11.064Z,22.73
2022-08-14T04:09:39.608Z,20.55
2022-08-14T04:12:13.339Z,25.45
2022-08-14T04:14:43.796Z,25.13
2022-08-14T04:17:15.492Z,27.83
2022-08-14T04:19:44.309Z,23.75
2022-08-14T04:22:13.358Z,22.80
2022-08-14T04:24:45.375Z,20.95
2022-08-14T04:27:18.091Z,23.52
2022-08-14T04:29:46.643Z,21.88
2022-08-14T04:32:58.294Z,25.33
2022-08-14T04:35:07.629Z,25.63
2022-08-14T04:37:56.786Z,23.75
2022-08-14T04:40:42.964Z,26.48
2022-08-14T04:43:38.351Z,24.60
2022-08-14T04:46:08.319Z,24.23
2022-08-14T04:48:42.882Z,23.48
2022-08-14T04:51:20.847Z,26.58
2022-08-14T04:53:51.202Z,23.92
2022-08-14T04:56:33.906Z,24.63
2022-08-14T04:59:09.645Z,27.02
2022-08-14T05:01:44.708Z,25.80
2022-08-14T05:04:19.979Z,22.77
2022-08-14T05:06:49.401Z,24.08
2022-08-14T05:09:18.097Z,26.10
2022-08-14T05:11:47.592Z,28.42
2022-08-14T05:14:16.949Z,29.30
2022-08-14T05:17:04.496Z,33.33
2022-08-14T05:19:44.697Z,31.05
2022-08-14T05:22:27.050Z,37.53
2022-08-14T05:24:55.855Z,40.20
2022-08-14T05:27:24.403Z,36.90
2022-08-14T05:29:55.435Z,33.17
2022-08-14T05:32:26.918Z,39.67
2022-08-14T05:34:58.295Z,33.67
2022-08-14T05:37:28.044Z,37.28
2022-08-14T05:39:56.983Z,36.60
2022-08-14T05:42:29.015Z,36.53
2022-08-14T05:45:00.131Z,36.03
2022-08-14T05:47:39.431Z,37.05
2022-08-14T05:50:19.321Z,40.28
2022-08-14T05:52:49.476Z,37.15
2022-08-14T05:55:21.987Z,36.78
2022-08-14T05:57:52.726Z,30.38
2022-08-14T06:00:28.313Z,39.00
2022-08-14T06:03:00.012Z,33.95
2022-08-14T06:05:30.263Z,35.22
2022-08-14T06:07:59.695Z,35.67
2022-08-14T06:10:28.686Z,30.13
2022-08-14T06:12:58.155Z,28.67
2022-08-14T06:15:30.588Z,27.73
2022-08-14T06:18:00.458Z,28.95
2022-08-14T06:20:31.740Z,31.85
2022-08-14T06:23:03.069Z,24.92
2022-08-14T06:25:31.718Z,25.35
2022-08-14T06:28:00.944Z,25.77
2022-08-14T06:30:45.639Z,26.75
2022-08-14T06:33:16.320Z,27.83
2022-08-14T06:35:48.694Z,23.65
2022-08-14T06:38:18.398Z,22.35
2022-08-14T06:40:47.207Z,17.70
2022-08-14T06:43:19.166Z,17.38
2022-08-14T06:45:53.741Z,14.80
2022-08-14T06:48:24.075Z,19.45
2022-08-14T06:50:54.762Z,16.55
2022-08-14T06:53:28.013Z,14.00
2022-08-14T06:56:01.896Z,16.38
2022-08-14T06:58:32.253Z,16.35
2022-08-14T07:01:25.135Z,14.45
2022-08-14T07:04:13.011Z,15.90
2022-08-14T07:06:54.860Z,17.00
2022-08-14T07:09:27.871Z,13.35
2022-08-14T07:11:57.863Z,15.02
2022-08-14T07:14:26.472Z,16.67
2022-08-14T07:16:55.032Z,17.48
2022-08-14T07:19:23.798Z,17.75
2022-08-14T07:21:54.801Z,18.05
2022-08-14T07:24:31.075Z,17.27
2022-08-14T07:27:00.287Z,17.23
2022-08-14T07:29:29.112Z,16.38
2022-08-14T07:31:57.639Z,17.25
2022-08-14T07:34:40.706Z,17.92
2022-08-14T07:37:11.260Z,16.00
2022-08-14T07:39:39.790Z,15.50
2022-08-14T07:42:12.977Z,17.55
2022-08-14T07:44:46.573Z,18.88
2022-08-14T07:47:17.620Z,19.35
2022-08-14T07:49:50.483Z,20.63
2022-08-14T07:52:30.705Z,19.75
2022-08-14T07:55:00.812Z,16.75
2022-08-14T07:57:29.272Z,19.15
2022-08-14T07:59:57.938Z,18.90
2022-08-14T08:02:29.718Z,21.42
2022-08-14T08:05:02.659Z,18.35
2022-08-14T08:07:33.154Z,20.35
2022-08-14T08:10:02.525Z,19.75
2022-08-14T08:12:32.146Z,19.02
2022-08-14T08:15:07.544Z,21.90
2022-08-14T08:17:42.347Z,18.10
2022-08-14T08:20:20.246Z,17.38
2022-08-14T08:22:56.017Z,16.02
2022-08-14T08:25:25.236Z,14.25
2022-08-14T08:27:57.593Z,14.80
2022-08-14T08:30:26.271Z,15.48
2022-08-14T08:32:56.357Z,13.35
2022-08-14T08:35:25.778Z,13.45
2022-08-14T08:39:14.914Z,14.25
2022-08-14T08:41:11.173Z,14.48
2022-08-14T08:43:46.219Z,12.18
2022-08-14T08:46:18.584Z,11.35
2022-08-14T08:48:53.680Z,11.82
2022-08-14T08:51:22.787Z,12.50
2022-08-14T08:54:01.788Z,12.93
2022-08-14T08:56:39.670Z,14.43
2022-08-14T08:59:19.188Z,10.57
2022-08-14T09:01:52.387Z,10.90
2022-08-14T09:04:25.443Z,10.50
2022-08-14T09:07:09.347Z,11.77
2022-08-14T09:09:54.175Z,12.88
2022-08-14T09:12:32.391Z,9.98
2022-08-14T09:15:02.611Z,9.90
2022-08-14T09:17:31.108Z,10.68
2022-08-14T09:20:01.799Z,10.90
2022-08-14T09:22:36.493Z,9.48
2022-08-14T09:25:12.986Z,8.85
2022-08-14T09:27:43.575Z,13.35
2022-08-14T09:30:32.936Z,8.65
2022-08-14T09:33:11.705Z,10.85
2022-08-14T09:35:45.262Z,10.13
2022-08-14T09:38:26.139Z,8.93
2022-08-14T09:41:01.439Z,8.85
2022-08-14T09:43:32.732Z,9.60
2022-08-14T09:46:02.656Z,8.88
2022-08-14T09:48:31.587Z,9.75
2022-08-14T09:54:19.404Z,9.00
2022-08-14T09:56:56.671Z,8.65
2022-08-14T09:59:28.217Z,8.50
2022-08-14T10:02:01.209Z,8.38
2022-08-14T10:04:35.799Z,8.75
2022-08-14T10:07:08.102Z,8.45
2022-08-14T10:10:02.054Z,8.77
2022-08-14T10:12:50.198Z,12.13
2022-08-14T10:15:25.338Z,9.50
2022-08-14T10:18:09.497Z,9.40
2022-08-14T10:20:49.835Z,9.77
2022-08-14T10:23:19.428Z,11.15
2022-08-14T10:25:50.725Z,9.93
2022-08-14T10:28:57.438Z,9.82
2022-08-14T10:31:18.236Z,7.03
2022-08-14T10:34:00.333Z,7.15
2022-08-14T10:36:35.118Z,4.03
2022-08-14T10:39:10.028Z,4.63
2022-08-14T10:41:48.530Z,4.63
2022-08-14T10:44:20.825Z,5.43
2022-08-14T10:47:39.436Z,6.38
2022-08-14T10:49:47.462Z,4.78
2022-08-14T10:52:22.162Z,4.40
2022-08-14T10:54:56.320Z,4.88
2022-08-14T10:57:25.894Z,4.75
2022-08-14T10:59:56.961Z,5.13
2022-08-14T11:02:45.044Z,5.60
2022-08-14T11:05:19.340Z,5.20
2022-08-14T11:07:57.183Z,4.75
2022-08-14T11:10:29.053Z,5.00
2022-08-14T11:12:58.725Z,4.40
2022-08-14T11:15:32.380Z,5.22
2022-08-14T11:18:01.291Z,7.07
2022-08-14T11:20:31.009Z,5.22
2022-08-14T11:23:01.117Z,5.22
2022-08-14T11:25:41.327Z,6.80
2022-08-14T11:28:14.686Z,8.43
2022-08-14T11:30:54.270Z,7.63
2022-08-14T11:33:29.504Z,6.72
2022-08-14T11:36:00.453Z,9.05
2022-08-14T11:38:30.928Z,6.03
2022-08-14T11:41:00.212Z,8.82
2022-08-14T11:43:30.669Z,6.05
2022-08-14T11:46:03.573Z,6.03
2022-08-14T11:49:01.989Z,7.68
2022-08-14T11:51:23.717Z,7.30
2022-08-14T11:53:53.388Z,7.97
2022-08-14T11:56:25.813Z,7.35
2022-08-14T11:58:58.613Z,9.05
2022-08-14T12:01:31.231Z,6.57
2022-08-14T12:04:32.019Z,7.90
2022-08-14T12:06:58.703Z,7.55
2022-08-14T12:09:31.204Z,8.05
2022-08-14T12:11:59.825Z,8.05
2022-08-14T12:14:34.390Z,6.55
2022-08-14T12:17:12.539Z,8.02
2022-08-14T12:19:50.994Z,7.80
2022-08-14T12:22:30.312Z,7.97
2022-08-14T12:24:59.628Z,6.88
2022-08-14T12:27:46.741Z,8.25
2022-08-14T12:30:29.237Z,7.32
2022-08-14T12:33:08.909Z,8.73
2022-08-14T12:35:42.708Z,9.48
2022-08-14T12:38:19.412Z,8.05
2022-08-14T12:40:48.927Z,6.80
2022-08-14T12:43:18.278Z,7.70
2022-08-14T12:45:50.403Z,7.45
2022-08-14T12:48:31.612Z,7.40
2022-08-14T12:51:01.588Z,7.25
2022-08-14T12:53:38.718Z,9.23
2022-08-14T12:56:21.553Z,7.15
2022-08-14T12:58:58.409Z,7.18
2022-08-14T13:01:28.615Z,7.68
2022-08-14T13:04:07.880Z,7.50
2022-08-14T13:06:39.620Z,6.88
2022-08-14T13:09:11.196Z,7.05
2022-08-14T13:11:41.413Z,7.60
2022-08-14T13:14:17.406Z,8.00
2022-08-14T13:16:50.377Z,7.25
2022-08-14T13:19:24.399Z,9.07
2022-08-14T13:22:05.315Z,8.32
2022-08-14T13:24:39.884Z,8.48
2022-08-14T13:27:09.954Z,7.57
2022-08-14T13:29:43.863Z,8.93
2022-08-14T13:32:16.148Z,7.63
2022-08-14T13:34:46.749Z,6.78
2022-08-14T13:37:16.977Z,6.57
2022-08-14T13:39:57.000Z,7.22
2022-08-14T13:42:30.747Z,8.77
2022-08-14T13:45:01.351Z,7.63
2022-08-14T13:47:30.924Z,8.77
2022-08-14T13:50:02.843Z,7.95
2022-08-14T13:52:52.214Z,7.43
2022-08-14T13:55:23.561Z,9.68
2022-08-14T13:58:04.067Z,7.60
2022-08-14T14:00:35.581Z,6.40
2022-08-14T14:03:20.291Z,8.55
2022-08-14T14:05:54.923Z,7.53
2022-08-14T14:08:46.814Z,6.95
2022-08-14T14:11:15.729Z,8.77
2022-08-14T14:13:45.917Z,8.77
2022-08-14T14:16:26.344Z,7.13
2022-08-14T14:19:04.713Z,8.40
2022-08-14T14:21:37.194Z,7.95
2022-08-14T14:24:06.612Z,7.30
2022-08-14T14:26:36.310Z,6.95
2022-08-14T14:29:04.994Z,8.70
2022-08-14T14:31:33.424Z,8.38
2022-08-14T14:34:07.337Z,6.85
2022-08-14T14:36:45.231Z,6.82
2022-08-14T14:39:20.273Z,7.15
2022-08-14T14:41:56.282Z,6.40
2022-08-14T14:44:25.920Z,7.10
2022-08-14T14:46:57.059Z,6.78
2022-08-14T14:49:41.965Z,6.55
2022-08-14T14:52:27.308Z,6.35
2022-08-14T14:54:57.732Z,7.18
2022-08-14T14:57:35.712Z,10.15
2022-08-14T15:00:06.396Z,7.18
2022-08-14T15:02:38.133Z,7.85
2022-08-14T15:05:08.526Z,6.82
2022-08-14T15:07:38.898Z,7.50
2022-08-14T15:10:28.102Z,7.30
2022-08-14T15:12:57.931Z,7.30
2022-08-14T15:15:29.070Z,7.82
2022-08-14T15:18:01.682Z,7.90
2022-08-14T15:20:31.445Z,6.53
2022-08-14T15:23:11.996Z,7.03
2022-08-14T15:25:41.380Z,6.85
2022-08-14T15:28:11.673Z,7.55
2022-08-14T15:30:41.348Z,6.97
2022-08-14T15:33:10.343Z,8.43
2022-08-14T15:35:46.075Z,9.40
2022-08-14T15:38:17.829Z,6.60
2022-08-14T15:40:51.635Z,7.88
2022-08-14T15:43:27.251Z,6.90
2022-08-14T15:45:59.675Z,9.90
2022-08-14T15:48:29.605Z,6.97
2022-08-14T15:50:58.151Z,8.07
2022-08-14T15:53:31.424Z,7.78
2022-08-14T15:56:00.740Z,7.13
2022-08-14T15:58:30.780Z,6.68
2022-08-14T16:01:31.209Z,5.65
2022-08-14T16:04:05.631Z,7.03
2022-08-14T16:06:35.838Z,7.38
2022-08-14T16:09:10.627Z,6.47
2022-08-14T16:11:43.242Z,7.47
2022-08-14T16:14:20.605Z,6.97
2022-08-14T16:16:59.952Z,6.93
2022-08-14T16:19:31.176Z,6.47
2022-08-14T16:22:57.539Z,7.03
2022-08-14T16:25:00.012Z,5.35
2022-08-14T16:27:34.097Z,5.10
2022-08-14T16:30:06.479Z,7.28
2022-08-14T16:32:54.605Z,5.28
2022-08-14T16:35:26.418Z,5.88
2022-08-14T16:38:19.904Z,4.93
2022-08-14T16:41:14.896Z,5.13
2022-08-14T16:43:44.671Z,5.00
2022-08-14T16:46:14.826Z,5.45
2022-08-14T16:48:55.661Z,4.85
2022-08-14T16:51:28.151Z,4.63
2022-08-14T16:53:56.817Z,4.45
2022-08-14T16:56:28.071Z,5.07
2022-08-14T16:59:07.192Z,6.40
2022-08-14T17:01:37.575Z,4.75
2022-08-14T17:04:14.920Z,5.35
2022-08-14T17:06:54.590Z,6.35
2022-08-14T17:09:48.509Z,6.65
2022-08-14T17:12:28.635Z,6.43
2022-08-14T17:15:10.798Z,7.13
2022-08-14T17:17:50.107Z,7.15
2022-08-14T17:20:53.832Z,7.10
2022-08-14T17:23:16.205Z,6.85
2022-08-14T17:25:49.536Z,5.53
2022-08-14T17:31:12.012Z,9.23
2022-08-14T17:33:44.311Z,6.65
2022-08-14T17:36:22.644Z,6.93
2022-08-14T17:38:59.684Z,6.40
2022-08-14T17:41:36.308Z,6.78
2022-08-14T17:44:34.059Z,7.20
2022-08-14T17:47:18.274Z,6.82
2022-08-14T17:49:52.233Z,7.53
2022-08-14T17:52:34.628Z,5.95
2022-08-14T17:55:06.250Z,6.10
2022-08-14T17:57:41.138Z,5.30
2022-08-14T18:00:12.339Z,5.82
2022-08-14T18:02:50.798Z,6.90
2022-08-14T18:05:23.013Z,6.88
2022-08-14T18:08:32.916Z,7.60
2022-08-14T18:10:55.376Z,8.13
2022-08-14T18:13:50.013Z,6.65
2022-08-14T18:16:19.811Z,7.00
2022-08-14T18:18:50.977Z,7.07
2022-08-14T18:21:42.511Z,7.20
2022-08-14T18:24:28.180Z,8.75
2022-08-14T18:27:02.186Z,9.40
2022-08-14T18:29:31.548Z,7.68
2022-08-14T18:32:00.688Z,8.43
2022-08-14T18:34:37.610Z,9.93
2022-08-14T18:37:17.680Z,9.55
2022-08-14T18:40:02.924Z,7.75
2022-08-14T18:42:44.285Z,9.00
2022-08-14T18:45:16.069Z,8.88
2022-08-14T18:50:48.678Z,9.27
2022-08-14T18:53:24.521Z,7.97
2022-08-14T18:55:54.751Z,9.98
2022-08-14T18:58:31.451Z,8.68
2022-08-14T19:01:04.634Z,9.85
2022-08-14T19:03:58.808Z,11.20
2022-08-14T19:06:56.461Z,12.95
2022-08-14T19:09:43.996Z,11.82
2022-08-14T19:12:44.372Z,13.15
2022-08-14T19:15:21.043Z,12.55
2022-08-14T19:18:14.266Z,12.85
2022-08-14T19:20:52.977Z,13.63
2022-08-14T19:23:42.925Z,10.73
2022-08-14T19:26:33.982Z,13.40
2022-08-14T19:29:19.634Z,13.43
2022-08-14T19:31:55.805Z,14.27
2022-08-14T19:34:40.452Z,13.98
2022-08-14T19:37:37.029Z,14.05
2022-08-14T19:40:15.138Z,13.68
2022-08-14T19:42:46.679Z,13.50
2022-08-14T19:45:16.211Z,15.48
2022-08-14T19:47:50.015Z,14.82
2022-08-14T19:50:37.839Z,15.07
2022-08-14T19:53:17.006Z,16.30
2022-08-14T19:55:58.472Z,15.43
2022-08-14T19:58:38.113Z,13.02
2022-08-14T20:01:36.646Z,20.83
2022-08-14T20:04:08.026Z,17.80
2022-08-14T20:06:56.834Z,17.13
2022-08-14T20:11:08.343Z,17.38
2022-08-14T20:12:28.984Z,19.15
2022-08-14T20:15:13.620Z,17.10
2022-08-14T20:17:52.754Z,20.70
2022-08-14T20:20:31.588Z,22.40
2022-08-14T20:23:11.548Z,19.77
2022-08-14T20:25:56.374Z,21.73
2022-08-14T20:28:35.342Z,22.63
2022-08-14T20:31:14.189Z,21.92
2022-08-14T20:33:59.424Z,22.92
2022-08-14T20:36:31.753Z,24.98
2022-08-14T20:39:01.237Z,24.25
2022-08-14T20:41:29.702Z,25.65
2022-08-14T20:44:18.370Z,24.00
2022-08-14T20:46:50.019Z,25.05
2022-08-14T20:49:29.215Z,23.50
2022-08-14T20:52:00.311Z,22.38
2022-08-14T20:54:36.439Z,23.40
2022-08-14T20:57:09.016Z,21.60
2022-08-14T20:59:43.653Z,21.67
2022-08-14T21:02:29.536Z,21.17
2022-08-14T21:05:00.730Z,23.35
2022-08-14T21:07:36.682Z,27.73
2022-08-14T21:10:36.351Z,22.50
2022-08-14T21:13:27.916Z,25.67
2022-08-14T21:15:57.374Z,21.50
2022-08-14T21:18:28.882Z,23.88
2022-08-14T21:20:58.773Z,34.67
2022-08-14T21:23:32.352Z,31.30
2022-08-14T21:26:01.592Z,32.00
2022-08-14T21:28:35.194Z,31.60
2022-08-14T21:31:04.399Z,29.38
2022-08-14T21:33:35.699Z,34.40
2022-08-14T21:36:08.065Z,30.80
2022-08-14T21:38:37.982Z,31.05
2022-08-14T21:41:42.582Z,35.65
2022-08-14T21:44:18.188Z,29.50
2022-08-14T21:46:50.025Z,32.92
2022-08-14T21:49:23.469Z,32.35
2022-08-14T21:51:58.859Z,29.92
2022-08-14T21:54:49.060Z,30.17
2022-08-14T21:57:55.956Z,31.20
2022-08-14T22:00:30.184Z,39.38
2022-08-14T22:03:02.595Z,41.95
2022-08-14T22:05:32.667Z,35.55
2022-08-14T22:08:02.450Z,34.50
2022-08-14T22:10:32.598Z,41.75
2022-08-14T22:13:01.763Z,40.70
2022-08-14T22:15:31.581Z,41.63
2022-08-14T22:18:00.252Z,55.10
2022-08-14T22:20:33.079Z,75.13
2022-08-14T22:23:04.319Z,94.00
2022-08-14T22:25:34.380Z,68.22
2022-08-14T22:28:11.381Z,56.33
2022-08-14T22:30:41.731Z,48.72
2022-08-14T22:33:13.358Z,43.42
2022-08-14T22:35:43.675Z,33.50
2022-08-14T22:38:34.660Z,33.70
2022-08-14T22:41:25.621Z,33.88
2022-08-14T22:43:52.182Z,31.05
2022-08-14T22:46:22.162Z,29.48
2022-08-14T22:48:51.937Z,26.88
2022-08-14T22:51:23.581Z,29.00
2022-08-14T22:53:53.469Z,32.47
2022-08-14T22:56:29.167Z,31.45
2022-08-14T22:58:58.561Z,31.23
2022-08-14T23:01:56.637Z,32.13
2022-08-14T23:04:34.182Z,32.63
2022-08-14T23:07:14.533Z,33.92
2022-08-14T23:09:56.555Z,29.25
2022-08-14T23:12:28.524Z,31.75
2022-08-14T23:14:58.188Z,29.75
2022-08-14T23:17:27.711Z,30.27
2022-08-14T23:20:18.783Z,31.00
2022-08-14T23:22:51.147Z,27.25
2022-08-14T23:25:57.013Z,28.88
2022-08-14T23:28:34.847Z,29.80
2022-08-14T23:30:58.375Z,28.73
2022-08-14T23:33:29.229Z,29.63
2022-08-14T23:35:58.641Z,26.75
2022-08-14T23:38:30.903Z,29.52
2022-08-14T23:41:00.731Z,27.55
2022-08-14T23:43:31.656Z,28.35
2022-08-14T23:46:00.460Z,34.60
2022-08-14T23:48:29.390Z,27.63
2022-08-14T23:51:01.718Z,29.63
2022-08-14T23:53:48.421Z,26.63
2022-08-14T23:56:19.116Z,27.90
2022-08-14T23:59:00.289Z,29.98
